createdAt,value
2018-09-28T00:02:21.561Z,11.00
2018-09-28T00:04:50.063Z,11.00
2018-09-28T00:07:18.511Z,10.90
2018-09-28T00:09:46.937Z,11.00
2018-09-28T00:12:15.464Z,10.90
2018-09-28T00:14:43.965Z,10.80
2018-09-28T00:17:12.387Z,10.70
2018-09-28T00:19:40.852Z,10.50
2018-09-28T00:22:09.301Z,10.50
2018-09-28T00:24:37.739Z,10.40
2018-09-28T00:27:06.168Z,10.40
2018-09-28T00:29:34.858Z,10.30
2018-09-28T00:32:03.298Z,10.30
2018-09-28T00:34:31.734Z,10.20
2018-09-28T00:37:00.189Z,10.20
2018-09-28T00:39:28.627Z,10.20
2018-09-28T00:41:57.054Z,10.20
2018-09-28T00:44:25.487Z,10.40
2018-09-28T00:46:53.908Z,10.50
2018-09-28T00:49:22.342Z,10.60
2018-09-28T00:51:50.791Z,10.70
2018-09-28T00:54:19.949Z,10.80
2018-09-28T00:56:48.405Z,10.80
2018-09-28T00:59:16.921Z,10.80
2018-09-28T01:01:45.434Z,10.80
2018-09-28T01:04:13.855Z,10.70
2018-09-28T01:06:42.284Z,10.60
2018-09-28T01:09:12.770Z,10.60
2018-09-28T01:11:41.274Z,10.50
2018-09-28T01:14:09.844Z,10.50
2018-09-28T01:16:38.262Z,10.30
2018-09-28T01:19:06.830Z,10.20
2018-09-28T01:21:35.625Z,10.10
2018-09-28T01:24:04.074Z,10.10
2018-09-28T01:26:32.533Z,10.10
2018-09-28T01:29:00.977Z,10.10
2018-09-28T01:31:29.748Z,10.10
2018-09-28T01:33:58.444Z,10.10
2018-09-28T01:36:27.723Z,10.20
2018-09-28T01:38:56.186Z,10.30
2018-09-28T01:41:24.608Z,10.30
2018-09-28T01:43:53.153Z,10.30
2018-09-28T01:46:21.644Z,10.20
2018-09-28T01:48:50.072Z,10.20
2018-09-28T01:51:18.518Z,10.20
2018-09-28T01:53:46.936Z,10.20
2018-09-28T01:56:15.490Z,10.10
2018-09-28T01:58:44.053Z,10.10
2018-09-28T02:01:12.486Z,10.10
2018-09-28T02:03:41.609Z,10.20
2018-09-28T02:06:10.086Z,10.30
2018-09-28T02:08:38.515Z,10.30
2018-09-28T02:11:06.982Z,10.30
2018-09-28T02:13:35.566Z,10.30
2018-09-28T02:16:03.983Z,10.30
2018-09-28T02:18:32.394Z,10.30
2018-09-28T02:21:00.816Z,10.30
2018-09-28T02:23:29.250Z,10.30
2018-09-28T02:25:57.737Z,10.40
2018-09-28T02:28:26.172Z,10.40
2018-09-28T02:30:54.604Z,10.50
2018-09-28T02:33:23.190Z,10.50
2018-09-28T02:35:51.676Z,10.50
2018-09-28T02:38:20.108Z,10.60
2018-09-28T02:40:48.558Z,10.70
2018-09-28T02:43:17.043Z,10.70
2018-09-28T02:45:45.473Z,10.70
2018-09-28T02:48:14.000Z,10.70
2018-09-28T02:50:42.489Z,10.70
2018-09-28T02:53:15.150Z,10.70
2018-09-28T02:55:43.630Z,10.70
2018-09-28T02:58:12.045Z,10.70
2018-09-28T03:00:40.614Z,10.80
2018-09-28T03:03:09.512Z,10.80
2018-09-28T03:05:38.200Z,10.90
2018-09-28T03:08:07.738Z,11.00
2018-09-28T03:10:36.375Z,11.20
2018-09-28T03:13:05.270Z,11.40
2018-09-28T03:15:33.712Z,11.50
2018-09-28T03:18:02.337Z,11.60
2018-09-28T03:20:30.843Z,11.70
2018-09-28T03:22:59.271Z,11.90
2018-09-28T03:25:27.705Z,12.00
2018-09-28T03:27:56.144Z,12.00
2018-09-28T03:30:24.580Z,12.10
2018-09-28T03:32:53.029Z,12.30
2018-09-28T03:35:21.479Z,12.30
2018-09-28T03:37:49.923Z,12.40
2018-09-28T03:40:18.352Z,12.40
2018-09-28T03:42:46.805Z,12.50
2018-09-28T03:45:15.234Z,12.60
2018-09-28T03:47:46.507Z,12.70
2018-09-28T03:50:14.973Z,12.80
2018-09-28T03:52:43.499Z,12.90
2018-09-28T03:55:12.321Z,13.00
2018-09-28T03:57:40.753Z,13.10
2018-09-28T04:00:10.428Z,13.20
2018-09-28T04:02:39.607Z,13.20
2018-09-28T04:05:08.033Z,13.30
2018-09-28T04:07:36.867Z,13.30
2018-09-28T04:10:06.176Z,13.40
2018-09-28T04:12:34.959Z,13.40
2018-09-28T04:15:03.459Z,13.40
2018-09-28T04:17:31.869Z,13.50
2018-09-28T04:20:00.378Z,13.50
2018-09-28T04:22:28.831Z,13.50
2018-09-28T04:24:57.339Z,13.60
2018-09-28T04:27:25.768Z,13.60
2018-09-28T04:29:54.200Z,13.60
2018-09-28T04:32:22.702Z,13.60
2018-09-28T04:34:51.259Z,13.60
2018-09-28T04:37:19.735Z,13.70
2018-09-28T04:39:48.200Z,13.70
2018-09-28T04:42:16.684Z,13.70
2018-09-28T04:44:45.126Z,13.80
2018-09-28T04:47:13.717Z,13.80
2018-09-28T04:49:42.255Z,13.80
2018-09-28T04:52:10.717Z,13.80
2018-09-28T04:54:39.159Z,13.80
2018-09-28T04:57:07.589Z,13.80
2018-09-28T04:59:36.033Z,13.90
2018-09-28T05:02:04.503Z,13.80
2018-09-28T05:04:32.972Z,13.80
2018-09-28T05:07:01.429Z,13.90
2018-09-28T05:09:29.877Z,13.90
2018-09-28T05:11:58.324Z,14.00
2018-09-28T05:14:26.759Z,14.00
2018-09-28T05:16:55.236Z,14.00
2018-09-28T05:19:23.711Z,14.00
2018-09-28T05:21:52.266Z,14.00
2018-09-28T05:24:20.742Z,14.00
2018-09-28T05:26:49.196Z,14.00
2018-09-28T05:29:17.622Z,14.00
2018-09-28T05:31:46.488Z,14.00
2018-09-28T05:34:14.901Z,14.00
2018-09-28T05:36:44.144Z,14.00
2018-09-28T05:39:12.703Z,14.00
2018-09-28T05:41:41.230Z,14.00
2018-09-28T05:44:09.720Z,14.00
2018-09-28T05:46:38.242Z,13.90
2018-09-28T05:49:06.767Z,13.90
2018-09-28T05:51:35.277Z,13.90
2018-09-28T05:54:03.680Z,13.90
2018-09-28T05:56:32.102Z,13.80
2018-09-28T05:59:05.814Z,13.80
2018-09-28T06:02:42.338Z,13.80
2018-09-28T06:05:16.081Z,13.80
2018-09-28T06:07:44.490Z,13.70
2018-09-28T06:10:12.924Z,13.60
2018-09-28T06:12:41.622Z,13.60
2018-09-28T06:15:10.046Z,13.70
2018-09-28T06:17:38.472Z,13.70
2018-09-28T06:20:07.914Z,13.70
2018-09-28T06:22:36.340Z,13.70
2018-09-28T06:25:04.770Z,13.80
2018-09-28T06:27:33.206Z,13.80
2018-09-28T06:30:01.639Z,13.80
2018-09-28T06:32:30.084Z,13.80
2018-09-28T06:34:58.888Z,13.80
2018-09-28T06:37:28.131Z,13.80
2018-09-28T06:39:56.693Z,13.80
2018-09-28T06:42:26.080Z,13.80
2018-09-28T06:44:54.616Z,13.90
2018-09-28T06:47:23.083Z,13.90
2018-09-28T06:49:51.599Z,13.90
2018-09-28T06:52:20.065Z,13.90
2018-09-28T06:54:48.539Z,13.90
2018-09-28T06:57:17.961Z,13.90
2018-09-28T06:59:46.611Z,14.00
2018-09-28T07:02:15.063Z,14.10
2018-09-28T07:04:43.851Z,14.10
2018-09-28T07:07:12.395Z,14.20
2018-09-28T07:09:40.928Z,14.30
2018-09-28T07:12:09.454Z,14.30
2018-09-28T07:14:37.858Z,14.40
2018-09-28T07:17:06.351Z,14.40
2018-09-28T07:19:34.826Z,14.50
2018-09-28T07:22:03.391Z,14.50
2018-09-28T07:24:31.873Z,14.60
2018-09-28T07:27:00.341Z,14.60
2018-09-28T07:29:28.789Z,14.60
2018-09-28T07:31:57.233Z,14.70
2018-09-28T07:34:25.799Z,14.70
2018-09-28T07:36:54.304Z,14.70
2018-09-28T07:39:22.695Z,14.70
2018-09-28T07:41:51.159Z,14.70
2018-09-28T07:44:19.581Z,14.70
2018-09-28T07:46:48.012Z,14.70
2018-09-28T07:49:17.158Z,14.80
2018-09-28T07:51:45.530Z,14.80
2018-09-28T07:54:14.062Z,14.80
2018-09-28T07:56:42.964Z,14.90
2018-09-28T07:59:11.391Z,14.90
2018-09-28T08:01:39.856Z,14.90
2018-09-28T08:04:08.537Z,15.00
2018-09-28T08:06:37.000Z,15.00
2018-09-28T08:09:07.692Z,15.10
2018-09-28T08:11:36.167Z,15.10
2018-09-28T08:14:04.817Z,15.10
2018-09-28T08:16:33.355Z,15.10
2018-09-28T08:19:01.819Z,15.10
2018-09-28T08:21:30.317Z,15.10
2018-09-28T08:23:58.939Z,15.10
2018-09-28T08:26:27.457Z,15.20
2018-09-28T08:28:56.031Z,15.20
2018-09-28T08:31:24.543Z,15.20
2018-09-28T08:33:53.574Z,15.30
2018-09-28T08:36:22.204Z,15.30
2018-09-28T08:38:50.525Z,15.30
2018-09-28T08:41:19.011Z,15.30
2018-09-28T08:43:47.510Z,15.30
2018-09-28T08:46:15.905Z,15.30
2018-09-28T08:48:44.345Z,15.40
2018-09-28T08:51:12.781Z,15.50
2018-09-28T08:53:41.219Z,15.40
2018-09-28T08:56:09.705Z,15.40
2018-09-28T08:58:38.133Z,15.40
2018-09-28T09:01:06.845Z,15.40
2018-09-28T09:03:35.312Z,15.40
2018-09-28T09:06:03.812Z,15.40
2018-09-28T09:08:32.271Z,15.50
2018-09-28T09:11:00.696Z,15.60
2018-09-28T09:13:29.128Z,15.70
2018-09-28T09:15:57.661Z,15.70
2018-09-28T09:18:26.215Z,15.70
2018-09-28T09:20:54.541Z,15.70
2018-09-28T09:23:22.968Z,15.70
2018-09-28T09:25:51.383Z,15.70
2018-09-28T09:28:20.148Z,15.80
2018-09-28T09:30:48.584Z,15.90
2018-09-28T09:33:17.012Z,15.90
2018-09-28T09:35:45.493Z,15.90
2018-09-28T09:38:13.986Z,15.90
2018-09-28T09:40:42.436Z,15.90
2018-09-28T09:43:10.955Z,16.00
2018-09-28T09:45:39.482Z,16.10
2018-09-28T09:48:07.950Z,16.20
2018-09-28T09:50:36.390Z,16.20
2018-09-28T09:53:04.830Z,16.20
2018-09-28T09:55:33.942Z,16.20
2018-09-28T09:58:02.405Z,16.30
2018-09-28T10:00:36.242Z,16.40
2018-09-28T10:03:10.034Z,16.40
2018-09-28T10:05:38.461Z,16.30
2018-09-28T10:08:06.897Z,16.10
2018-09-28T10:10:35.464Z,15.90
2018-09-28T10:13:03.920Z,15.70
2018-09-28T10:15:32.349Z,15.50
2018-09-28T10:18:00.788Z,15.40
2018-09-28T10:20:29.226Z,15.20
2018-09-28T10:22:57.670Z,15.10
2018-09-28T10:25:26.116Z,15.00
2018-09-28T10:27:54.631Z,15.00
2018-09-28T10:30:23.074Z,15.00
2018-09-28T10:32:51.588Z,15.00
2018-09-28T10:35:20.046Z,15.00
2018-09-28T10:37:48.525Z,15.00
2018-09-28T10:40:16.982Z,15.00
2018-09-28T10:42:45.417Z,15.10
2018-09-28T10:45:13.898Z,15.10
2018-09-28T10:47:42.339Z,15.10
2018-09-28T10:50:10.789Z,15.30
2018-09-28T10:52:39.426Z,15.30
2018-09-28T10:55:07.812Z,15.40
2018-09-28T10:57:36.251Z,15.40
2018-09-28T11:00:04.990Z,15.50
2018-09-28T11:02:33.471Z,15.50
2018-09-28T11:05:02.583Z,15.50
2018-09-28T11:07:31.283Z,15.50
2018-09-28T11:09:59.958Z,15.60
2018-09-28T11:12:28.379Z,15.60
2018-09-28T11:14:56.799Z,15.70
2018-09-28T11:17:25.222Z,15.90
2018-09-28T11:19:53.656Z,16.00
2018-09-28T11:22:22.087Z,16.20
2018-09-28T11:24:50.558Z,16.40
2018-09-28T11:27:19.035Z,16.50
2018-09-28T11:29:47.454Z,16.70
2018-09-28T11:32:16.299Z,16.90
2018-09-28T11:34:44.738Z,17.20
2018-09-28T11:37:13.182Z,17.40
2018-09-28T11:39:41.750Z,17.60
2018-09-28T11:42:10.168Z,17.70
2018-09-28T11:44:38.720Z,17.60
2018-09-28T11:47:07.135Z,17.60
2018-09-28T11:49:35.571Z,17.60
2018-09-28T11:52:04.016Z,17.60
2018-09-28T11:54:32.458Z,17.60
2018-09-28T11:57:01.665Z,17.60
2018-09-28T11:59:30.171Z,17.60
2018-09-28T12:01:59.301Z,17.70
2018-09-28T12:04:27.727Z,17.60
2018-09-28T12:06:56.224Z,17.60
2018-09-28T12:09:24.642Z,17.40
2018-09-28T12:11:53.481Z,17.30
2018-09-28T12:14:21.910Z,17.20
2018-09-28T12:16:50.347Z,17.20
2018-09-28T12:19:18.971Z,17.20
2018-09-28T12:21:47.520Z,17.10
2018-09-28T12:24:15.899Z,17.10
2018-09-28T12:26:44.316Z,17.10
2018-09-28T12:29:12.750Z,17.10
2018-09-28T12:31:41.177Z,17.20
2018-09-28T12:34:09.623Z,17.20
2018-09-28T12:36:38.087Z,17.10
2018-09-28T12:39:08.189Z,17.10
2018-09-28T12:41:36.645Z,17.00
2018-09-28T12:44:05.148Z,17.10
2018-09-28T12:46:33.629Z,17.30
2018-09-28T12:49:02.040Z,17.50
2018-09-28T12:51:30.512Z,17.80
2018-09-28T12:53:58.942Z,18.00
2018-09-28T12:56:27.765Z,18.20
2018-09-28T12:58:56.207Z,18.30
2018-09-28T13:01:25.241Z,18.40
2018-09-28T13:03:54.006Z,18.50
2018-09-28T13:06:22.460Z,18.60
2018-09-28T13:08:51.017Z,18.50
2018-09-28T13:11:19.414Z,18.30
2018-09-28T13:13:47.958Z,18.10
2018-09-28T13:16:16.390Z,18.10
2018-09-28T13:18:44.882Z,18.30
2018-09-28T13:21:13.344Z,18.40
2018-09-28T13:23:41.770Z,18.50
2018-09-28T13:26:10.277Z,18.40
2018-09-28T13:28:38.676Z,18.30
2018-09-28T13:31:07.288Z,18.20
2018-09-28T13:33:35.723Z,18.00
2018-09-28T13:36:04.446Z,17.90
2018-09-28T13:38:33.007Z,17.70
2018-09-28T13:41:01.968Z,17.40
2018-09-28T13:43:30.402Z,17.20
2018-09-28T13:45:58.916Z,17.20
2018-09-28T13:48:27.432Z,17.30
2018-09-28T13:50:55.781Z,17.50
2018-09-28T13:53:24.232Z,17.70
2018-09-28T13:55:52.704Z,18.00
2018-09-28T13:58:21.198Z,18.00
2018-09-28T14:00:49.699Z,17.90
2018-09-28T14:03:18.135Z,17.60
2018-09-28T14:05:46.587Z,17.30
2018-09-28T14:08:15.086Z,17.30
2018-09-28T14:10:43.509Z,17.50
2018-09-28T14:13:11.949Z,17.80
2018-09-28T14:15:40.387Z,18.10
2018-09-28T14:18:09.010Z,18.20
2018-09-28T14:20:37.435Z,18.10
2018-09-28T14:23:05.871Z,17.80
2018-09-28T14:25:34.320Z,17.40
2018-09-28T14:28:02.892Z,17.20
2018-09-28T14:30:31.300Z,16.90
2018-09-28T14:32:59.764Z,16.80
2018-09-28T14:35:28.232Z,16.90
2018-09-28T14:37:56.717Z,17.10
2018-09-28T14:40:25.243Z,17.00
2018-09-28T14:42:53.636Z,16.90
2018-09-28T14:45:22.332Z,16.90
2018-09-28T14:47:50.791Z,17.10
2018-09-28T14:50:19.300Z,17.30
2018-09-28T14:52:47.747Z,17.50
2018-09-28T14:55:16.180Z,17.80
2018-09-28T14:57:44.626Z,18.00
2018-09-28T15:00:13.083Z,18.20
2018-09-28T15:02:41.549Z,18.30
2018-09-28T15:05:10.584Z,18.30
2018-09-28T15:07:39.111Z,18.10
2018-09-28T15:10:07.896Z,18.00
2018-09-28T15:12:36.476Z,17.80
2018-09-28T15:15:04.940Z,17.50
2018-09-28T15:17:33.489Z,17.10
2018-09-28T15:20:01.936Z,17.00
2018-09-28T15:22:30.540Z,16.90
2018-09-28T15:24:59.040Z,16.80
2018-09-28T15:27:27.654Z,16.60
2018-09-28T15:29:56.120Z,16.50
2018-09-28T15:32:24.577Z,16.40
2018-09-28T15:34:53.033Z,16.50
2018-09-28T15:37:21.476Z,16.70
2018-09-28T15:39:49.926Z,16.90
2018-09-28T15:42:18.381Z,17.10
2018-09-28T15:44:46.807Z,17.30
2018-09-28T15:47:15.255Z,17.50
2018-09-28T15:49:43.707Z,17.60
2018-09-28T15:52:12.364Z,17.80
2018-09-28T15:54:40.915Z,18.00
2018-09-28T15:57:09.497Z,18.30
2018-09-28T15:59:37.936Z,18.40
2018-09-28T16:02:06.871Z,18.70
2018-09-28T16:04:35.405Z,18.90
2018-09-28T16:07:04.940Z,19.00
2018-09-28T16:09:34.126Z,19.10
2018-09-28T16:12:02.667Z,19.20
2018-09-28T16:14:31.658Z,19.20
2018-09-28T16:17:01.052Z,19.20
2018-09-28T16:19:29.674Z,19.30
2018-09-28T16:21:58.206Z,19.30
2018-09-28T16:24:26.923Z,19.30
2018-09-28T16:26:55.384Z,19.20
2018-09-28T16:29:24.079Z,19.10
2018-09-28T16:31:52.541Z,19.00
2018-09-28T16:34:21.240Z,18.90
2018-09-28T16:36:49.718Z,19.00
2018-09-28T16:39:18.505Z,19.00
2018-09-28T16:41:46.976Z,19.00
2018-09-28T16:44:15.396Z,19.00
2018-09-28T16:46:43.926Z,18.90
2018-09-28T16:49:12.366Z,18.90
2018-09-28T16:51:40.888Z,18.70
2018-09-28T16:54:09.495Z,18.60
2018-09-28T16:56:38.231Z,18.40
2018-09-28T16:59:06.968Z,18.10
2018-09-28T17:01:35.462Z,17.90
2018-09-28T17:04:03.961Z,17.70
2018-09-28T17:06:32.498Z,17.40
2018-09-28T17:09:01.092Z,17.20
2018-09-28T17:11:29.516Z,16.90
2018-09-28T17:13:58.566Z,16.60
2018-09-28T17:16:27.091Z,16.20
2018-09-28T17:18:55.527Z,15.90
2018-09-28T17:21:24.061Z,15.60
2018-09-28T17:23:52.559Z,15.40
2018-09-28T17:26:21.124Z,15.20
2018-09-28T17:28:49.680Z,15.00
2018-09-28T17:31:18.286Z,14.90
2018-09-28T17:33:46.855Z,14.80
2018-09-28T17:36:15.443Z,14.70
2018-09-28T17:38:44.008Z,14.60
2018-09-28T17:41:12.645Z,14.50
2018-09-28T17:43:41.108Z,14.40
2018-09-28T17:46:09.576Z,14.20
2018-09-28T17:48:38.028Z,14.10
2018-09-28T17:51:06.704Z,14.10
2018-09-28T17:53:35.311Z,13.90
2018-09-28T17:56:03.805Z,13.80
2018-09-28T17:58:32.274Z,13.70
2018-09-28T18:01:00.797Z,13.70
2018-09-28T18:03:29.516Z,13.70
2018-09-28T18:05:58.017Z,13.60
2018-09-28T18:08:26.525Z,13.50
2018-09-28T18:10:55.602Z,13.50
2018-09-28T18:13:24.092Z,13.40
2018-09-28T18:15:52.552Z,13.30
2018-09-28T18:18:20.985Z,13.20
2018-09-28T18:20:49.461Z,13.20
2018-09-28T18:23:17.930Z,13.10
2018-09-28T18:25:46.386Z,12.90
2018-09-28T18:28:16.379Z,12.90
2018-09-28T18:30:44.861Z,12.70
2018-09-28T18:33:13.747Z,12.60
2018-09-28T18:35:43.357Z,12.50
2018-09-28T18:38:11.911Z,12.40
2018-09-28T18:40:40.482Z,12.40
2018-09-28T18:43:09.298Z,12.40
2018-09-28T18:45:37.851Z,12.40
2018-09-28T18:48:06.501Z,12.30
2018-09-28T18:50:35.228Z,12.30
2018-09-28T18:53:04.944Z,12.30
2018-09-28T18:55:33.563Z,12.30
2018-09-28T18:58:03.114Z,12.30
2018-09-28T19:00:31.546Z,12.20
2018-09-28T19:03:00.191Z,12.20
2018-09-28T19:05:28.692Z,12.20
2018-09-28T19:08:03.916Z,12.20
2018-09-28T19:10:32.361Z,12.10
2018-09-28T19:13:00.793Z,12.10
2018-09-28T19:15:29.356Z,12.00
2018-09-28T19:17:57.802Z,12.10
2018-09-28T19:20:26.271Z,12.00
2018-09-28T19:22:54.865Z,12.00
2018-09-28T19:25:23.382Z,12.00
2018-09-28T19:27:51.925Z,11.90
2018-09-28T19:30:20.359Z,11.90
2018-09-28T19:32:48.811Z,11.90
2018-09-28T19:35:17.513Z,11.90
2018-09-28T19:37:46.490Z,11.90
2018-09-28T19:40:15.235Z,11.90
2018-09-28T19:42:44.445Z,11.90
2018-09-28T19:45:12.935Z,11.80
2018-09-28T19:47:41.424Z,11.80
2018-09-28T19:50:10.010Z,11.80
2018-09-28T19:52:38.448Z,11.70
2018-09-28T19:55:06.881Z,11.70
2018-09-28T19:57:35.416Z,11.70
2018-09-28T20:00:03.921Z,11.70
2018-09-28T20:02:32.391Z,11.60
2018-09-28T20:05:01.200Z,11.60
2018-09-28T20:07:30.159Z,11.60
2018-09-28T20:09:58.642Z,11.60
2018-09-28T20:12:27.105Z,11.60
2018-09-28T20:14:55.692Z,11.60
2018-09-28T20:17:24.178Z,11.60
2018-09-28T20:19:52.619Z,11.50
2018-09-28T20:22:21.212Z,11.50
2018-09-28T20:24:49.679Z,11.50
2018-09-28T20:27:18.235Z,11.40
2018-09-28T20:29:47.138Z,11.40
2018-09-28T20:32:15.649Z,11.40
2018-09-28T20:34:44.083Z,11.30
2018-09-28T20:37:12.522Z,11.30
2018-09-28T20:39:40.960Z,11.20
2018-09-28T20:42:09.411Z,11.20
2018-09-28T20:44:37.888Z,11.20
2018-09-28T20:47:06.400Z,11.10
2018-09-28T20:49:34.854Z,11.00
2018-09-28T20:52:03.311Z,10.90
2018-09-28T20:54:31.775Z,10.80
2018-09-28T20:57:01.698Z,10.70
2018-09-28T20:59:30.270Z,10.60
2018-09-28T21:01:58.831Z,10.50
2018-09-28T21:04:27.516Z,10.50
2018-09-28T21:06:56.901Z,10.50
2018-09-28T21:09:26.564Z,10.40
2018-09-28T21:11:55.014Z,10.40
2018-09-28T21:14:23.442Z,10.40
2018-09-28T21:16:51.884Z,10.40
2018-09-28T21:19:20.295Z,10.40
2018-09-28T21:21:48.720Z,10.40
2018-09-28T21:24:17.170Z,10.30
2018-09-28T21:26:45.596Z,10.30
2018-09-28T21:29:14.131Z,10.30
2018-09-28T21:31:42.658Z,10.20
2018-09-28T21:34:11.430Z,10.20
2018-09-28T21:36:40.684Z,10.10
2018-09-28T21:39:10.375Z,10.10
2018-09-28T21:41:39.139Z,10.00
2018-09-28T21:44:08.191Z,10.00
2018-09-28T21:46:37.633Z,9.90
2018-09-28T21:49:06.167Z,9.80
2018-09-28T21:51:34.648Z,9.80
2018-09-28T21:54:03.195Z,9.80
2018-09-28T21:56:31.875Z,9.80
2018-09-28T21:59:00.303Z,9.70
2018-09-28T22:01:28.738Z,9.70
2018-09-28T22:03:57.186Z,9.60
2018-09-28T22:06:25.621Z,9.60
2018-09-28T22:08:54.036Z,9.50
2018-09-28T22:11:22.535Z,9.40
2018-09-28T22:13:50.987Z,9.40
2018-09-28T22:16:19.386Z,9.30
2018-09-28T22:18:47.817Z,9.20
2018-09-28T22:21:16.253Z,9.20
2018-09-28T22:23:44.794Z,9.20
2018-09-28T22:26:13.225Z,9.20
2018-09-28T22:28:41.861Z,9.20
2018-09-28T22:31:10.304Z,9.30
2018-09-28T22:33:39.733Z,9.30
2018-09-28T22:36:08.229Z,9.40
2018-09-28T22:38:38.161Z,9.40
2018-09-28T22:41:06.590Z,9.40
2018-09-28T22:43:35.026Z,9.40
2018-09-28T22:46:03.500Z,9.50
2018-09-28T22:48:31.950Z,9.40
2018-09-28T22:51:00.456Z,9.40
2018-09-28T22:53:28.883Z,9.40
2018-09-28T22:55:57.310Z,9.40
2018-09-28T22:58:26.829Z,9.40
2018-09-28T23:00:55.256Z,9.40
2018-09-28T23:03:23.652Z,9.40
2018-09-28T23:05:52.087Z,9.40
2018-09-28T23:08:20.620Z,9.40
2018-09-28T23:10:49.085Z,9.30
2018-09-28T23:13:18.067Z,9.30
2018-09-28T23:15:46.530Z,9.20
2018-09-28T23:18:14.983Z,9.20
2018-09-28T23:20:43.424Z,9.20
2018-09-28T23:23:11.831Z,9.20
2018-09-28T23:25:40.286Z,9.20
2018-09-28T23:28:08.811Z,9.20
2018-09-28T23:30:37.259Z,9.20
2018-09-28T23:33:05.716Z,9.20
2018-09-28T23:35:34.173Z,9.20
2018-09-28T23:38:02.599Z,9.30
2018-09-28T23:40:31.012Z,9.20
2018-09-28T23:42:59.545Z,9.20
2018-09-28T23:45:28.089Z,9.20
2018-09-28T23:47:56.526Z,9.10
2018-09-28T23:50:24.954Z,9.10
2018-09-28T23:52:53.397Z,9.10
2018-09-28T23:55:21.876Z,9.10
2018-09-28T23:57:50.338Z,9.10
